Portada
METAR-TAF:

METAR-TAF

Aeroports :

Buochs, Suïssa

latitud: 46-58-28N, longitud: 8-23-49E, altitud: 449 m

Observació

L'informe es va fer fa 15 minuts, a les 13:50 UTC
Vent 5 kt del Est, variant entre Nord-Est i Sud/Sud-Oest
Temperatura 25°C
Humitat 44%
Pressió 1016 hPa
Visibilitat 10 km o més
Escasses núvols a una alçada de 4000 ft

METAR: LSZC 161350Z 10005KT 040V210 9999 FEW040 25/12 Q1016

Hora: 16:05 (14:05 UTC)

Pronòstic

L'informe es va fer fa 2 hores i 40 minuts, a les 11:25 UTC
Pronòstic vàlid del 16 a les 12 UTC al 16 a les 21 UTC
Vent 3 kt amb direcció variable
Visibilitat 10 km o més
Escasses núvols a una alçada de 6000 ft
Evolucionant progressivament
l' 16 a les 16 UTC al 16 a les 19 UTC
Visibilitat 10 km o més
sense núvols per sota de 1500 mi sense presència de cumulonimbus.

TAF: LSZC 161125Z 1612/1621 VRB03KT 9999 FEW060 BECMG 1616/1619 CAVOK

Observacions i pronòstics meteorològics de més de 4000 aeroports (METAR i TAF).

Les estacions disponibles són els punts grocs i vermells al mapa.

Posi el ratolí al punt desitjat per veure el nom de l'estació.

Feu clic per veure les observacions i els pronòstics meteorològics.

Per canviar el mapa: feu clic els botons verds amb una creu de color negre per apropar; al botó verd amb un guió per allunyar la imatge; o en les fletxes verdes per a mapes adjacents.


METAR-TAF: